sensor_id;sensor_type;location;lat;lon;timestamp;temperature;humidity
68746;SHT31;66104;45.456;11.064;2023-04-16T00:00:38;13.07;51.67
68746;SHT31;66104;45.456;11.064;2023-04-16T00:03:16;12.95;51.76
68746;SHT31;66104;45.456;11.064;2023-04-16T00:05:53;12.84;52.01
68746;SHT31;66104;45.456;11.064;2023-04-16T00:08:30;12.76;52.47
68746;SHT31;66104;45.456;11.064;2023-04-16T00:11:07;12.69;52.57
68746;SHT31;66104;45.456;11.064;2023-04-16T00:13:44;12.62;52.21
68746;SHT31;66104;45.456;11.064;2023-04-16T00:16:21;12.60;52.53
68746;SHT31;66104;45.456;11.064;2023-04-16T00:18:59;12.53;52.66
68746;SHT31;66104;45.456;11.064;2023-04-16T00:21:37;12.44;52.73
68746;SHT31;66104;45.456;11.064;2023-04-16T00:24:14;12.37;52.50
68746;SHT31;66104;45.456;11.064;2023-04-16T00:26:50;12.28;52.86
68746;SHT31;66104;45.456;11.064;2023-04-16T00:29:27;12.08;53.56
68746;SHT31;66104;45.456;11.064;2023-04-16T00:32:05;11.89;54.13
68746;SHT31;66104;45.456;11.064;2023-04-16T00:34:41;11.80;54.61
68746;SHT31;66104;45.456;11.064;2023-04-16T00:37:19;11.76;54.78
68746;SHT31;66104;45.456;11.064;2023-04-16T00:39:57;11.76;54.89
68746;SHT31;66104;45.456;11.064;2023-04-16T00:42:33;11.75;54.92
68746;SHT31;66104;45.456;11.064;2023-04-16T00:45:12;11.73;55.05
68746;SHT31;66104;45.456;11.064;2023-04-16T00:47:50;11.72;54.97
68746;SHT31;66104;45.456;11.064;2023-04-16T00:50:28;11.69;54.73
68746;SHT31;66104;45.456;11.064;2023-04-16T00:53:05;11.65;54.71
68746;SHT31;66104;45.456;11.064;2023-04-16T00:55:43;11.67;54.63
68746;SHT31;66104;45.456;11.064;2023-04-16T00:58:24;11.67;54.41
68746;SHT31;66104;45.456;11.064;2023-04-16T01:01:01;11.70;54.27
68746;SHT31;66104;45.456;11.064;2023-04-16T01:03:38;11.72;54.81
68746;SHT31;66104;45.456;11.064;2023-04-16T01:06:17;11.64;55.19
68746;SHT31;66104;45.456;11.064;2023-04-16T01:08:54;11.60;55.48
68746;SHT31;66104;45.456;11.064;2023-04-16T01:11:31;11.61;55.59
68746;SHT31;66104;45.456;11.064;2023-04-16T01:14:08;11.59;55.63
68746;SHT31;66104;45.456;11.064;2023-04-16T01:16:45;11.52;55.59
68746;SHT31;66104;45.456;11.064;2023-04-16T01:19:21;11.44;55.57
68746;SHT31;66104;45.456;11.064;2023-04-16T01:21:58;11.40;55.64
68746;SHT31;66104;45.456;11.064;2023-04-16T01:24:36;11.35;55.48
68746;SHT31;66104;45.456;11.064;2023-04-16T01:27:12;11.34;55.13
68746;SHT31;66104;45.456;11.064;2023-04-16T01:29:47;11.35;55.13
68746;SHT31;66104;45.456;11.064;2023-04-16T01:32:34;11.35;55.19
68746;SHT31;66104;45.456;11.064;2023-04-16T01:35:12;11.31;55.20
68746;SHT31;66104;45.456;11.064;2023-04-16T01:37:51;11.29;55.11
68746;SHT31;66104;45.456;11.064;2023-04-16T01:40:27;11.26;55.09
68746;SHT31;66104;45.456;11.064;2023-04-16T01:43:04;11.25;54.93
68746;SHT31;66104;45.456;11.064;2023-04-16T01:45:41;11.23;54.89
68746;SHT31;66104;45.456;11.064;2023-04-16T01:48:18;11.16;54.66
68746;SHT31;66104;45.456;11.064;2023-04-16T01:50:55;11.11;54.66
68746;SHT31;66104;45.456;11.064;2023-04-16T01:53:32;11.09;54.65
68746;SHT31;66104;45.456;11.064;2023-04-16T01:56:11;11.06;54.73
68746;SHT31;66104;45.456;11.064;2023-04-16T01:58:48;11.00;54.49
68746;SHT31;66104;45.456;11.064;2023-04-16T02:01:27;10.90;54.32
68746;SHT31;66104;45.456;11.064;2023-04-16T02:04:05;10.89;54.28
68746;SHT31;66104;45.456;11.064;2023-04-16T02:06:41;10.89;54.44
68746;SHT31;66104;45.456;11.064;2023-04-16T02:09:18;10.85;54.20
68746;SHT31;66104;45.456;11.064;2023-04-16T02:11:56;10.80;54.17
68746;SHT31;66104;45.456;11.064;2023-04-16T02:14:33;10.76;54.53
68746;SHT31;66104;45.456;11.064;2023-04-16T02:17:10;10.71;54.78
68746;SHT31;66104;45.456;11.064;2023-04-16T02:19:49;10.65;54.99
68746;SHT31;66104;45.456;11.064;2023-04-16T02:22:27;10.60;55.02
68746;SHT31;66104;45.456;11.064;2023-04-16T02:25:05;10.57;55.02
68746;SHT31;66104;45.456;11.064;2023-04-16T02:27:44;10.56;54.96
68746;SHT31;66104;45.456;11.064;2023-04-16T02:30:35;10.53;54.98
68746;SHT31;66104;45.456;11.064;2023-04-16T02:33:12;10.52;54.91
68746;SHT31;66104;45.456;11.064;2023-04-16T02:35:55;10.49;54.90
68746;SHT31;66104;45.456;11.064;2023-04-16T02:38:32;10.46;55.06
68746;SHT31;66104;45.456;11.064;2023-04-16T02:41:09;10.47;55.16
68746;SHT31;66104;45.456;11.064;2023-04-16T02:43:47;10.46;55.14
68746;SHT31;66104;45.456;11.064;2023-04-16T02:46:24;10.48;55.00
68746;SHT31;66104;45.456;11.064;2023-04-16T02:49:04;10.45;55.28
68746;SHT31;66104;45.456;11.064;2023-04-16T02:51:53;10.35;55.67
68746;SHT31;66104;45.456;11.064;2023-04-16T02:54:30;10.29;55.58
68746;SHT31;66104;45.456;11.064;2023-04-16T02:57:07;10.28;55.67
68746;SHT31;66104;45.456;11.064;2023-04-16T02:59:43;10.26;55.84
68746;SHT31;66104;45.456;11.064;2023-04-16T03:02:21;10.22;56.00
68746;SHT31;66104;45.456;11.064;2023-04-16T03:04:57;10.18;56.11
68746;SHT31;66104;45.456;11.064;2023-04-16T03:07:34;10.18;56.06
68746;SHT31;66104;45.456;11.064;2023-04-16T03:10:11;10.15;56.08
68746;SHT31;66104;45.456;11.064;2023-04-16T03:12:47;10.14;56.15
68746;SHT31;66104;45.456;11.064;2023-04-16T03:15:24;10.14;56.30
68746;SHT31;66104;45.456;11.064;2023-04-16T03:18:01;10.16;56.08
68746;SHT31;66104;45.456;11.064;2023-04-16T03:20:38;10.19;55.84
68746;SHT31;66104;45.456;11.064;2023-04-16T03:23:16;10.21;55.91
68746;SHT31;66104;45.456;11.064;2023-04-16T03:25:53;10.23;55.83
68746;SHT31;66104;45.456;11.064;2023-04-16T03:28:30;10.25;55.77
68746;SHT31;66104;45.456;11.064;2023-04-16T03:31:08;10.25;55.82
68746;SHT31;66104;45.456;11.064;2023-04-16T03:33:45;10.17;56.46
68746;SHT31;66104;45.456;11.064;2023-04-16T03:36:21;10.13;56.74
68746;SHT31;66104;45.456;11.064;2023-04-16T03:38:58;10.16;56.76
68746;SHT31;66104;45.456;11.064;2023-04-16T03:41:36;10.13;56.99
68746;SHT31;66104;45.456;11.064;2023-04-16T03:44:18;10.14;57.04
68746;SHT31;66104;45.456;11.064;2023-04-16T03:46:55;10.14;57.21
68746;SHT31;66104;45.456;11.064;2023-04-16T03:49:32;10.17;57.22
68746;SHT31;66104;45.456;11.064;2023-04-16T03:52:08;10.15;57.34
68746;SHT31;66104;45.456;11.064;2023-04-16T03:54:45;10.08;57.92
68746;SHT31;66104;45.456;11.064;2023-04-16T03:57:25;9.97;58.37
68746;SHT31;66104;45.456;11.064;2023-04-16T04:00:08;9.88;58.86
68746;SHT31;66104;45.456;11.064;2023-04-16T04:03:03;9.79;59.06
68746;SHT31;66104;45.456;11.064;2023-04-16T04:05:40;9.77;59.21
68746;SHT31;66104;45.456;11.064;2023-04-16T04:08:24;9.81;58.78
68746;SHT31;66104;45.456;11.064;2023-04-16T04:11:00;9.84;58.60
68746;SHT31;66104;45.456;11.064;2023-04-16T04:13:38;9.88;58.26
68746;SHT31;66104;45.456;11.064;2023-04-16T04:16:16;9.89;58.16
68746;SHT31;66104;45.456;11.064;2023-04-16T04:18:52;9.90;58.30
68746;SHT31;66104;45.456;11.064;2023-04-16T04:21:29;9.86;58.47
68746;SHT31;66104;45.456;11.064;2023-04-16T04:24:06;9.83;58.51
68746;SHT31;66104;45.456;11.064;2023-04-16T04:26:43;9.79;58.54
68746;SHT31;66104;45.456;11.064;2023-04-16T04:29:20;9.75;58.67
68746;SHT31;66104;45.456;11.064;2023-04-16T04:31:57;9.72;58.83
68746;SHT31;66104;45.456;11.064;2023-04-16T04:34:34;9.69;59.06
68746;SHT31;66104;45.456;11.064;2023-04-16T04:37:10;9.63;59.25
68746;SHT31;66104;45.456;11.064;2023-04-16T04:39:47;9.63;59.47
68746;SHT31;66104;45.456;11.064;2023-04-16T04:42:23;9.62;59.62
68746;SHT31;66104;45.456;11.064;2023-04-16T04:45:00;9.62;59.69
68746;SHT31;66104;45.456;11.064;2023-04-16T04:47:41;9.61;59.84
68746;SHT31;66104;45.456;11.064;2023-04-16T04:50:17;9.62;59.95
68746;SHT31;66104;45.456;11.064;2023-04-16T04:52:55;9.63;60.02
68746;SHT31;66104;45.456;11.064;2023-04-16T04:55:35;9.64;60.03
68746;SHT31;66104;45.456;11.064;2023-04-16T04:58:12;9.63;60.07
68746;SHT31;66104;45.456;11.064;2023-04-16T05:00:48;9.64;60.10
68746;SHT31;66104;45.456;11.064;2023-04-16T05:03:28;9.67;60.10
68746;SHT31;66104;45.456;11.064;2023-04-16T05:06:06;9.92;59.86
68746;SHT31;66104;45.456;11.064;2023-04-16T05:08:43;11.45;57.06
68746;SHT31;66104;45.456;11.064;2023-04-16T05:11:19;13.22;53.42
68746;SHT31;66104;45.456;11.064;2023-04-16T05:13:57;14.61;50.52
68746;SHT31;66104;45.456;11.064;2023-04-16T05:16:34;15.06;49.02
68746;SHT31;66104;45.456;11.064;2023-04-16T05:19:12;14.70;49.04
68746;SHT31;66104;45.456;11.064;2023-04-16T05:21:48;14.17;49.77
68746;SHT31;66104;45.456;11.064;2023-04-16T05:24:24;13.75;50.46
68746;SHT31;66104;45.456;11.064;2023-04-16T05:27:00;13.41;51.07
68746;SHT31;66104;45.456;11.064;2023-04-16T05:29:37;13.17;51.60
68746;SHT31;66104;45.456;11.064;2023-04-16T05:32:13;12.97;51.91
68746;SHT31;66104;45.456;11.064;2023-04-16T05:34:49;12.82;52.28
68746;SHT31;66104;45.456;11.064;2023-04-16T05:37:26;12.69;52.62
68746;SHT31;66104;45.456;11.064;2023-04-16T05:40:02;12.55;53.08
68746;SHT31;66104;45.456;11.064;2023-04-16T05:42:44;12.47;53.38
68746;SHT31;66104;45.456;11.064;2023-04-16T05:45:22;12.44;53.64
68746;SHT31;66104;45.456;11.064;2023-04-16T05:47:59;12.47;53.88
68746;SHT31;66104;45.456;11.064;2023-04-16T05:50:37;12.52;54.04
68746;SHT31;66104;45.456;11.064;2023-04-16T05:53:13;12.58;53.91
68746;SHT31;66104;45.456;11.064;2023-04-16T05:55:49;12.62;53.91
68746;SHT31;66104;45.456;11.064;2023-04-16T05:58:26;12.61;53.97
68746;SHT31;66104;45.456;11.064;2023-04-16T06:01:04;12.67;54.76
68746;SHT31;66104;45.456;11.064;2023-04-16T06:03:42;12.76;54.74
68746;SHT31;66104;45.456;11.064;2023-04-16T06:06:18;12.80;55.62
68746;SHT31;66104;45.456;11.064;2023-04-16T06:08:57;12.76;56.03
68746;SHT31;66104;45.456;11.064;2023-04-16T06:11:33;12.64;56.44
68746;SHT31;66104;45.456;11.064;2023-04-16T06:14:09;12.45;56.85
68746;SHT31;66104;45.456;11.064;2023-04-16T06:16:46;12.25;58.02
68746;SHT31;66104;45.456;11.064;2023-04-16T06:19:22;12.11;58.76
68746;SHT31;66104;45.456;11.064;2023-04-16T06:21:59;12.05;59.17
68746;SHT31;66104;45.456;11.064;2023-04-16T06:24:36;12.05;59.44
68746;SHT31;66104;45.456;11.064;2023-04-16T06:27:14;12.04;59.67
68746;SHT31;66104;45.456;11.064;2023-04-16T06:29:50;12.02;59.73
68746;SHT31;66104;45.456;11.064;2023-04-16T06:32:27;11.99;59.91
68746;SHT31;66104;45.456;11.064;2023-04-16T06:35:03;11.99;59.98
68746;SHT31;66104;45.456;11.064;2023-04-16T06:37:43;12.06;59.90
68746;SHT31;66104;45.456;11.064;2023-04-16T06:40:19;12.10;60.08
68746;SHT31;66104;45.456;11.064;2023-04-16T06:42:56;12.07;60.38
68746;SHT31;66104;45.456;11.064;2023-04-16T06:45:34;12.03;60.39
68746;SHT31;66104;45.456;11.064;2023-04-16T06:48:11;12.01;60.37
68746;SHT31;66104;45.456;11.064;2023-04-16T06:50:48;12.06;60.23
68746;SHT31;66104;45.456;11.064;2023-04-16T06:53:26;12.20;60.21
68746;SHT31;66104;45.456;11.064;2023-04-16T06:56:04;12.31;59.89
68746;SHT31;66104;45.456;11.064;2023-04-16T06:58:43;12.46;59.73
68746;SHT31;66104;45.456;11.064;2023-04-16T07:01:20;12.61;59.19
68746;SHT31;66104;45.456;11.064;2023-04-16T07:03:57;12.74;58.95
68746;SHT31;66104;45.456;11.064;2023-04-16T07:06:33;12.87;58.63
68746;SHT31;66104;45.456;11.064;2023-04-16T07:09:10;12.98;58.14
68746;SHT31;66104;45.456;11.064;2023-04-16T07:11:48;13.09;57.72
68746;SHT31;66104;45.456;11.064;2023-04-16T07:14:24;13.18;57.21
68746;SHT31;66104;45.456;11.064;2023-04-16T07:17:01;13.30;56.98
68746;SHT31;66104;45.456;11.064;2023-04-16T07:19:38;13.45;56.88
68746;SHT31;66104;45.456;11.064;2023-04-16T07:22:14;13.61;56.51
68746;SHT31;66104;45.456;11.064;2023-04-16T07:24:52;13.77;55.87
68746;SHT31;66104;45.456;11.064;2023-04-16T07:27:29;13.91;55.65
68746;SHT31;66104;45.456;11.064;2023-04-16T07:30:08;14.04;55.23
68746;SHT31;66104;45.456;11.064;2023-04-16T07:32:46;14.17;55.06
68746;SHT31;66104;45.456;11.064;2023-04-16T07:35:23;14.29;55.00
68746;SHT31;66104;45.456;11.064;2023-04-16T07:38:00;14.40;54.87
68746;SHT31;66104;45.456;11.064;2023-04-16T07:40:37;14.52;54.69
68746;SHT31;66104;45.456;11.064;2023-04-16T07:43:14;14.63;54.51
68746;SHT31;66104;45.456;11.064;2023-04-16T07:45:51;14.72;54.45
68746;SHT31;66104;45.456;11.064;2023-04-16T07:48:27;14.81;54.20
68746;SHT31;66104;45.456;11.064;2023-04-16T07:51:05;14.91;53.92
68746;SHT31;66104;45.456;11.064;2023-04-16T07:53:42;15.00;54.03
68746;SHT31;66104;45.456;11.064;2023-04-16T07:56:19;15.05;53.52
68746;SHT31;66104;45.456;11.064;2023-04-16T07:58:56;15.10;53.40
68746;SHT31;66104;45.456;11.064;2023-04-16T08:01:51;15.20;54.08
68746;SHT31;66104;45.456;11.064;2023-04-16T08:04:28;15.30;54.49
68746;SHT31;66104;45.456;11.064;2023-04-16T08:07:04;15.40;54.55
68746;SHT31;66104;45.456;11.064;2023-04-16T08:09:47;15.50;54.44
68746;SHT31;66104;45.456;11.064;2023-04-16T08:12:25;15.60;54.23
68746;SHT31;66104;45.456;11.064;2023-04-16T08:15:01;15.71;53.85
68746;SHT31;66104;45.456;11.064;2023-04-16T08:17:41;15.78;53.00
68746;SHT31;66104;45.456;11.064;2023-04-16T08:20:18;15.82;53.18
68746;SHT31;66104;45.456;11.064;2023-04-16T08:22:55;15.90;52.94
68746;SHT31;66104;45.456;11.064;2023-04-16T08:25:33;15.99;51.99
68746;SHT31;66104;45.456;11.064;2023-04-16T08:28:09;16.09;50.78
68746;SHT31;66104;45.456;11.064;2023-04-16T08:30:46;16.18;50.00
68746;SHT31;66104;45.456;11.064;2023-04-16T08:33:23;16.28;48.10
68746;SHT31;66104;45.456;11.064;2023-04-16T08:36:00;16.34;47.43
68746;SHT31;66104;45.456;11.064;2023-04-16T08:38:38;16.39;47.08
68746;SHT31;66104;45.456;11.064;2023-04-16T08:41:15;16.45;46.64
68746;SHT31;66104;45.456;11.064;2023-04-16T08:43:55;16.53;46.69
68746;SHT31;66104;45.456;11.064;2023-04-16T08:46:38;16.59;46.26
68746;SHT31;66104;45.456;11.064;2023-04-16T08:49:18;16.64;46.22
68746;SHT31;66104;45.456;11.064;2023-04-16T08:51:56;16.70;46.50
68746;SHT31;66104;45.456;11.064;2023-04-16T08:54:38;16.74;46.72
68746;SHT31;66104;45.456;11.064;2023-04-16T08:57:29;16.81;46.53
68746;SHT31;66104;45.456;11.064;2023-04-16T09:00:15;16.86;46.17
68746;SHT31;66104;45.456;11.064;2023-04-16T09:02:53;16.89;45.99
68746;SHT31;66104;45.456;11.064;2023-04-16T09:05:30;16.90;46.24
68746;SHT31;66104;45.456;11.064;2023-04-16T09:08:09;16.97;46.11
68746;SHT31;66104;45.456;11.064;2023-04-16T09:10:46;17.03;45.65
68746;SHT31;66104;45.456;11.064;2023-04-16T09:13:24;17.02;45.09
68746;SHT31;66104;45.456;11.064;2023-04-16T09:16:02;16.98;45.17
68746;SHT31;66104;45.456;11.064;2023-04-16T09:18:40;16.99;45.34
68746;SHT31;66104;45.456;11.064;2023-04-16T09:21:16;17.03;45.43
68746;SHT31;66104;45.456;11.064;2023-04-16T09:23:54;17.07;44.92
68746;SHT31;66104;45.456;11.064;2023-04-16T09:26:32;17.10;45.13
68746;SHT31;66104;45.456;11.064;2023-04-16T09:29:11;17.16;44.97
68746;SHT31;66104;45.456;11.064;2023-04-16T09:32:09;17.20;44.82
68746;SHT31;66104;45.456;11.064;2023-04-16T09:34:56;17.22;44.64
68746;SHT31;66104;45.456;11.064;2023-04-16T09:37:35;17.26;44.57
68746;SHT31;66104;45.456;11.064;2023-04-16T09:40:12;17.32;44.65
68746;SHT31;66104;45.456;11.064;2023-04-16T09:42:58;17.38;43.96
68746;SHT31;66104;45.456;11.064;2023-04-16T09:45:51;17.43;44.50
68746;SHT31;66104;45.456;11.064;2023-04-16T09:48:29;17.49;44.45
68746;SHT31;66104;45.456;11.064;2023-04-16T09:51:07;17.56;44.03
68746;SHT31;66104;45.456;11.064;2023-04-16T09:53:44;17.65;44.12
68746;SHT31;66104;45.456;11.064;2023-04-16T09:56:27;17.72;43.54
68746;SHT31;66104;45.456;11.064;2023-04-16T09:59:04;17.77;43.35
68746;SHT31;66104;45.456;11.064;2023-04-16T10:01:46;17.79;42.82
68746;SHT31;66104;45.456;11.064;2023-04-16T10:04:47;17.84;42.93
68746;SHT31;66104;45.456;11.064;2023-04-16T10:07:26;17.88;42.17
68746;SHT31;66104;45.456;11.064;2023-04-16T10:10:08;17.95;41.78
68746;SHT31;66104;45.456;11.064;2023-04-16T10:12:50;18.03;40.97
68746;SHT31;66104;45.456;11.064;2023-04-16T10:15:27;18.08;41.51
68746;SHT31;66104;45.456;11.064;2023-04-16T10:18:06;18.11;42.14
68746;SHT31;66104;45.456;11.064;2023-04-16T10:20:45;18.13;42.02
68746;SHT31;66104;45.456;11.064;2023-04-16T10:23:22;18.16;41.54
68746;SHT31;66104;45.456;11.064;2023-04-16T10:26:00;18.19;41.08
68746;SHT31;66104;45.456;11.064;2023-04-16T10:28:38;18.17;41.05
68746;SHT31;66104;45.456;11.064;2023-04-16T10:31:17;18.21;41.00
68746;SHT31;66104;45.456;11.064;2023-04-16T10:33:56;18.28;41.09
68746;SHT31;66104;45.456;11.064;2023-04-16T10:36:36;18.32;40.85
68746;SHT31;66104;45.456;11.064;2023-04-16T10:39:16;18.41;41.06
68746;SHT31;66104;45.456;11.064;2023-04-16T10:42:08;18.51;41.18
68746;SHT31;66104;45.456;11.064;2023-04-16T10:44:46;18.59;40.39
68746;SHT31;66104;45.456;11.064;2023-04-16T10:47:24;18.65;40.32
68746;SHT31;66104;45.456;11.064;2023-04-16T10:50:01;18.70;40.36
68746;SHT31;66104;45.456;11.064;2023-04-16T10:52:50;18.75;39.71
68746;SHT31;66104;45.456;11.064;2023-04-16T10:56:08;18.86;39.61
68746;SHT31;66104;45.456;11.064;2023-04-16T10:58:46;18.93;39.50
68746;SHT31;66104;45.456;11.064;2023-04-16T11:01:28;18.99;39.39
68746;SHT31;66104;45.456;11.064;2023-04-16T11:07:13;19.09;39.59
68746;SHT31;66104;45.456;11.064;2023-04-16T11:09:55;19.16;39.50
68746;SHT31;66104;45.456;11.064;2023-04-16T11:12:35;19.23;39.17
68746;SHT31;66104;45.456;11.064;2023-04-16T11:15:13;19.28;38.70
68746;SHT31;66104;45.456;11.064;2023-04-16T11:17:51;19.32;38.50
68746;SHT31;66104;45.456;11.064;2023-04-16T11:20:27;19.34;38.60
68746;SHT31;66104;45.456;11.064;2023-04-16T11:23:05;19.40;38.64
68746;SHT31;66104;45.456;11.064;2023-04-16T11:25:46;19.46;38.79
68746;SHT31;66104;45.456;11.064;2023-04-16T11:28:35;19.53;38.19
68746;SHT31;66104;45.456;11.064;2023-04-16T11:31:12;19.52;37.80
68746;SHT31;66104;45.456;11.064;2023-04-16T11:33:48;19.49;37.89
68746;SHT31;66104;45.456;11.064;2023-04-16T11:36:25;19.50;37.94
68746;SHT31;66104;45.456;11.064;2023-04-16T11:39:16;19.54;38.36
68746;SHT31;66104;45.456;11.064;2023-04-16T11:41:53;19.65;37.55
68746;SHT31;66104;45.456;11.064;2023-04-16T11:44:29;19.64;37.07
68746;SHT31;66104;45.456;11.064;2023-04-16T11:47:07;19.56;37.13
68746;SHT31;66104;45.456;11.064;2023-04-16T11:49:44;19.54;37.48
68746;SHT31;66104;45.456;11.064;2023-04-16T11:52:25;19.58;36.97
68746;SHT31;66104;45.456;11.064;2023-04-16T11:55:02;19.54;37.54
68746;SHT31;66104;45.456;11.064;2023-04-16T11:57:42;19.60;37.45
68746;SHT31;66104;45.456;11.064;2023-04-16T12:00:20;19.71;36.74
68746;SHT31;66104;45.456;11.064;2023-04-16T12:03:04;19.81;36.97
68746;SHT31;66104;45.456;11.064;2023-04-16T12:05:41;19.88;36.68
68746;SHT31;66104;45.456;11.064;2023-04-16T12:08:27;19.94;36.38
68746;SHT31;66104;45.456;11.064;2023-04-16T12:11:04;20.01;36.11
68746;SHT31;66104;45.456;11.064;2023-04-16T12:13:41;20.09;36.12
68746;SHT31;66104;45.456;11.064;2023-04-16T12:16:40;20.18;36.19
68746;SHT31;66104;45.456;11.064;2023-04-16T12:19:17;20.19;36.23
68746;SHT31;66104;45.456;11.064;2023-04-16T12:21:54;20.25;36.43
68746;SHT31;66104;45.456;11.064;2023-04-16T12:24:36;20.33;35.94
68746;SHT31;66104;45.456;11.064;2023-04-16T12:27:13;20.30;35.44
68746;SHT31;66104;45.456;11.064;2023-04-16T12:30:03;20.31;35.79
68746;SHT31;66104;45.456;11.064;2023-04-16T12:32:46;20.41;35.62
68746;SHT31;66104;45.456;11.064;2023-04-16T12:35:44;20.49;35.66
68746;SHT31;66104;45.456;11.064;2023-04-16T12:38:20;20.47;35.57
68746;SHT31;66104;45.456;11.064;2023-04-16T12:40:55;20.42;35.49
68746;SHT31;66104;45.456;11.064;2023-04-16T12:43:33;20.50;35.69
68746;SHT31;66104;45.456;11.064;2023-04-16T12:46:11;20.58;35.28
68746;SHT31;66104;45.456;11.064;2023-04-16T12:48:48;20.61;35.50
68746;SHT31;66104;45.456;11.064;2023-04-16T12:51:26;20.67;35.65
68746;SHT31;66104;45.456;11.064;2023-04-16T12:54:05;20.65;35.94
68746;SHT31;66104;45.456;11.064;2023-04-16T12:56:42;20.74;35.69
68746;SHT31;66104;45.456;11.064;2023-04-16T12:59:18;20.86;34.98
68746;SHT31;66104;45.456;11.064;2023-04-16T13:01:55;20.94;34.53
68746;SHT31;66104;45.456;11.064;2023-04-16T13:04:33;21.02;34.86
68746;SHT31;66104;45.456;11.064;2023-04-16T13:07:09;21.13;35.04
68746;SHT31;66104;45.456;11.064;2023-04-16T13:09:47;21.22;35.06
68746;SHT31;66104;45.456;11.064;2023-04-16T13:12:25;21.25;35.04
68746;SHT31;66104;45.456;11.064;2023-04-16T13:15:02;21.25;35.09
68746;SHT31;66104;45.456;11.064;2023-04-16T13:17:43;21.11;34.74
68746;SHT31;66104;45.456;11.064;2023-04-16T13:20:20;20.99;34.89
68746;SHT31;66104;45.456;11.064;2023-04-16T13:22:57;20.90;35.25
68746;SHT31;66104;45.456;11.064;2023-04-16T13:25:33;20.79;35.27
68746;SHT31;66104;45.456;11.064;2023-04-16T13:28:10;20.65;35.59
68746;SHT31;66104;45.456;11.064;2023-04-16T13:30:48;20.46;35.39
68746;SHT31;66104;45.456;11.064;2023-04-16T13:33:24;20.30;35.69
68746;SHT31;66104;45.456;11.064;2023-04-16T13:36:02;20.27;36.00
68746;SHT31;66104;45.456;11.064;2023-04-16T13:38:39;20.30;35.51
68746;SHT31;66104;45.456;11.064;2023-04-16T13:41:17;20.33;35.59
68746;SHT31;66104;45.456;11.064;2023-04-16T13:43:54;20.32;35.82
68746;SHT31;66104;45.456;11.064;2023-04-16T13:46:31;20.27;36.30
68746;SHT31;66104;45.456;11.064;2023-04-16T13:49:08;20.22;36.18
68746;SHT31;66104;45.456;11.064;2023-04-16T13:51:47;20.19;36.60
68746;SHT31;66104;45.456;11.064;2023-04-16T13:54:23;20.14;36.18
68746;SHT31;66104;45.456;11.064;2023-04-16T13:57:00;20.10;36.05
68746;SHT31;66104;45.456;11.064;2023-04-16T13:59:38;20.01;36.70
68746;SHT31;66104;45.456;11.064;2023-04-16T14:02:15;19.95;36.74
68746;SHT31;66104;45.456;11.064;2023-04-16T14:04:53;19.90;36.75
68746;SHT31;66104;45.456;11.064;2023-04-16T14:07:30;19.91;36.63
68746;SHT31;66104;45.456;11.064;2023-04-16T14:10:09;19.92;36.75
68746;SHT31;66104;45.456;11.064;2023-04-16T14:12:45;19.90;37.19
68746;SHT31;66104;45.456;11.064;2023-04-16T14:15:21;19.81;37.34
68746;SHT31;66104;45.456;11.064;2023-04-16T14:17:58;19.69;37.40
68746;SHT31;66104;45.456;11.064;2023-04-16T14:20:35;19.63;37.86
68746;SHT31;66104;45.456;11.064;2023-04-16T14:23:11;19.56;38.24
68746;SHT31;66104;45.456;11.064;2023-04-16T14:25:48;19.48;38.10
68746;SHT31;66104;45.456;11.064;2023-04-16T14:28:25;19.41;38.18
68746;SHT31;66104;45.456;11.064;2023-04-16T14:31:01;19.33;38.36
68746;SHT31;66104;45.456;11.064;2023-04-16T14:33:38;19.26;38.13
68746;SHT31;66104;45.456;11.064;2023-04-16T14:36:15;19.19;38.26
68746;SHT31;66104;45.456;11.064;2023-04-16T14:38:53;19.17;38.82
68746;SHT31;66104;45.456;11.064;2023-04-16T14:41:29;19.14;38.54
68746;SHT31;66104;45.456;11.064;2023-04-16T14:44:06;19.08;38.51
68746;SHT31;66104;45.456;11.064;2023-04-16T14:46:43;19.05;38.11
68746;SHT31;66104;45.456;11.064;2023-04-16T14:49:20;18.98;38.22
68746;SHT31;66104;45.456;11.064;2023-04-16T14:51:57;18.95;38.69
68746;SHT31;66104;45.456;11.064;2023-04-16T14:54:35;18.94;38.70
68746;SHT31;66104;45.456;11.064;2023-04-16T14:57:12;18.95;38.96
68746;SHT31;66104;45.456;11.064;2023-04-16T14:59:48;18.99;38.77
68746;SHT31;66104;45.456;11.064;2023-04-16T15:02:25;19.04;38.42
68746;SHT31;66104;45.456;11.064;2023-04-16T15:05:02;19.00;38.17
68746;SHT31;66104;45.456;11.064;2023-04-16T15:07:41;19.00;38.53
68746;SHT31;66104;45.456;11.064;2023-04-16T15:10:18;18.97;38.97
68746;SHT31;66104;45.456;11.064;2023-04-16T15:12:56;18.91;39.22
68746;SHT31;66104;45.456;11.064;2023-04-16T15:15:33;18.84;39.55
68746;SHT31;66104;45.456;11.064;2023-04-16T15:18:10;18.77;39.44
68746;SHT31;66104;45.456;11.064;2023-04-16T15:20:47;18.73;39.96
68746;SHT31;66104;45.456;11.064;2023-04-16T15:23:23;18.70;40.08
68746;SHT31;66104;45.456;11.064;2023-04-16T15:26:01;18.67;40.36
68746;SHT31;66104;45.456;11.064;2023-04-16T15:28:37;18.67;40.67
68746;SHT31;66104;45.456;11.064;2023-04-16T15:31:13;18.69;40.35
68746;SHT31;66104;45.456;11.064;2023-04-16T15:33:50;18.70;40.29
68746;SHT31;66104;45.456;11.064;2023-04-16T15:36:27;18.69;40.46
68746;SHT31;66104;45.456;11.064;2023-04-16T15:39:04;18.66;40.75
68746;SHT31;66104;45.456;11.064;2023-04-16T15:41:41;18.67;41.11
68746;SHT31;66104;45.456;11.064;2023-04-16T15:44:30;18.67;40.93
68746;SHT31;66104;45.456;11.064;2023-04-16T15:47:08;18.67;41.14
68746;SHT31;66104;45.456;11.064;2023-04-16T15:49:46;18.69;40.68
68746;SHT31;66104;45.456;11.064;2023-04-16T15:52:23;18.69;40.85
68746;SHT31;66104;45.456;11.064;2023-04-16T15:55:00;18.69;40.83
68746;SHT31;66104;45.456;11.064;2023-04-16T15:57:39;18.68;40.80
68746;SHT31;66104;45.456;11.064;2023-04-16T16:00:17;18.66;41.14
68746;SHT31;66104;45.456;11.064;2023-04-16T16:02:53;18.64;40.91
68746;SHT31;66104;45.456;11.064;2023-04-16T16:05:31;18.61;41.04
68746;SHT31;66104;45.456;11.064;2023-04-16T16:08:08;18.60;41.18
68746;SHT31;66104;45.456;11.064;2023-04-16T16:10:44;18.54;41.11
68746;SHT31;66104;45.456;11.064;2023-04-16T16:13:20;18.45;41.56
68746;SHT31;66104;45.456;11.064;2023-04-16T16:15:56;18.33;41.46
68746;SHT31;66104;45.456;11.064;2023-04-16T16:18:33;18.24;41.98
68746;SHT31;66104;45.456;11.064;2023-04-16T16:21:12;18.18;42.88
68746;SHT31;66104;45.456;11.064;2023-04-16T16:23:49;18.17;43.52
68746;SHT31;66104;45.456;11.064;2023-04-16T16:26:25;18.09;44.67
68746;SHT31;66104;45.456;11.064;2023-04-16T16:29:02;18.07;46.18